Time;durP1;ratioP1;P1;durP2;ratioP2;P2;SDS_P1;SDS_P2;PMS_P1;PMS_P2;Temp;Humidity;BMP_temperature;BMP_pressure;BME280_temperature;BME280_humidity;BME280_pressure;Samples;Min_cycle;Max_cycle;Signal;HPM_P1;HPM_P2
2022/07/22 00:01:19;;;;;;;5.63;3.20;;;16.30;99.90;;;;;;5069224;28;20054;-71
2022/07/22 00:03:45;;;;;;;7.22;3.92;;;16.30;99.90;;;;;;5074758;28;20628;-71
2022/07/22 00:06:11;;;;;;;4.80;2.75;;;16.30;99.90;;;;;;5064847;28;20102;-71
2022/07/22 00:08:37;;;;;;;8.02;3.13;;;16.40;99.90;;;;;;5077221;28;20123;-71
2022/07/22 00:11:04;;;;;;;6.60;2.85;;;16.40;99.90;;;;;;5084238;28;20052;-71
2022/07/22 00:13:29;;;;;;;8.13;3.03;;;16.50;99.90;;;;;;5074822;28;20395;-71
2022/07/22 00:15:55;;;;;;;6.03;3.42;;;16.50;99.90;;;;;;5076519;28;20056;-72
2022/07/22 00:18:21;;;;;;;5.72;3.05;;;16.60;99.90;;;;;;5075591;28;20044;-71
2022/07/22 00:20:46;;;;;;;5.32;2.22;;;16.60;99.90;;;;;;5092533;28;20072;-71
2022/07/22 00:23:12;;;;;;;5.43;2.67;;;16.60;99.90;;;;;;5075002;28;20047;-71
2022/07/22 00:25:38;;;;;;;6.43;4.13;;;16.60;99.90;;;;;;5074592;28;20058;-71
2022/07/22 00:28:03;;;;;;;7.40;3.17;;;16.60;99.90;;;;;;5075367;28;20052;-71
2022/07/22 00:30:29;;;;;;;6.32;3.03;;;16.60;99.90;;;;;;5079442;28;20128;-71
2022/07/22 00:32:55;;;;;;;5.32;2.60;;;16.60;99.90;;;;;;5078898;28;20060;-72
2022/07/22 00:35:21;;;;;;;5.38;3.25;;;16.60;99.90;;;;;;5079142;28;20036;-71
2022/07/22 00:37:46;;;;;;;6.32;2.70;;;16.60;99.90;;;;;;5078684;28;20488;-72
2022/07/22 00:40:12;;;;;;;6.47;3.25;;;16.60;99.90;;;;;;5079906;28;20047;-71
2022/07/22 00:42:38;;;;;;;14.43;3.90;;;16.70;99.90;;;;;;5079331;28;20076;-70
2022/07/22 00:45:05;;;;;;;6.68;3.28;;;16.70;99.90;;;;;;5078943;28;20076;-70
2022/07/22 00:47:30;;;;;;;6.07;2.83;;;16.70;99.90;;;;;;5079929;28;20127;-70
2022/07/22 00:49:56;;;;;;;6.70;3.55;;;16.70;99.90;;;;;;5076270;28;20090;-70
2022/07/22 00:52:23;;;;;;;10.13;4.05;;;16.70;99.90;;;;;;5079813;28;20046;-70
2022/07/22 00:54:49;;;;;;;8.07;3.13;;;16.80;99.90;;;;;;5078488;28;20044;-70
2022/07/22 00:57:15;;;;;;;6.28;3.65;;;16.70;99.90;;;;;;5079590;28;20051;-69
2022/07/22 00:59:42;;;;;;;7.03;3.15;;;16.70;99.90;;;;;;5078655;28;20051;-70
2022/07/22 01:02:08;;;;;;;8.48;3.58;;;16.70;99.90;;;;;;5096113;28;20043;-70
2022/07/22 01:04:33;;;;;;;5.68;2.90;;;16.70;99.90;;;;;;5078204;28;20098;-70
2022/07/22 01:06:59;;;;;;;8.93;3.75;;;16.70;99.90;;;;;;5079650;28;20052;-70
2022/07/22 01:09:25;;;;;;;9.23;4.32;;;16.70;99.90;;;;;;5079111;28;20056;-70
2022/07/22 01:11:51;;;;;;;7.57;3.17;;;16.60;99.90;;;;;;5077589;28;20051;-70
2022/07/22 01:14:16;;;;;;;8.02;2.80;;;16.60;99.90;;;;;;5077976;28;20048;-71
2022/07/22 01:16:42;;;;;;;6.70;3.20;;;16.60;99.90;;;;;;5076746;28;20047;-71
2022/07/22 01:19:08;;;;;;;5.07;3.58;;;16.60;99.90;;;;;;5078485;28;20803;-71
2022/07/22 01:21:33;;;;;;;7.03;3.03;;;16.60;99.90;;;;;;5078158;28;20193;-71
2022/07/22 01:23:59;;;;;;;7.63;2.63;;;16.60;99.90;;;;;;5075952;28;20084;-72
2022/07/22 01:26:25;;;;;;;4.72;2.85;;;16.60;99.90;;;;;;5079320;28;20043;-72
2022/07/22 01:28:51;;;;;;;7.28;2.80;;;16.60;99.90;;;;;;5076966;28;20122;-72
2022/07/22 01:31:16;;;;;;;3.67;2.17;;;16.50;99.90;;;;;;5079135;28;20075;-71
2022/07/22 01:33:42;;;;;;;5.50;2.80;;;16.60;99.90;;;;;;5077339;28;20035;-72
2022/07/22 01:36:08;;;;;;;4.00;2.63;;;16.60;99.90;;;;;;5078253;28;20543;-72
2022/07/22 01:38:34;;;;;;;7.15;2.60;;;16.50;99.90;;;;;;5077028;28;20147;-71
2022/07/22 01:41:00;;;;;;;6.78;2.72;;;16.50;99.90;;;;;;5078864;28;20047;-71
2022/07/22 01:43:25;;;;;;;5.15;2.88;;;16.50;99.90;;;;;;5075473;28;20048;-71
2022/07/22 01:45:52;;;;;;;5.55;2.78;;;16.50;99.90;;;;;;5077047;28;20113;-71
2022/07/22 01:48:19;;;;;;;9.52;2.45;;;16.60;99.90;;;;;;5077807;28;20047;-71
2022/07/22 01:50:45;;;;;;;2.90;2.15;;;16.60;99.90;;;;;;5074695;28;20455;-71
2022/07/22 01:53:11;;;;;;;6.88;4.15;;;16.60;99.90;;;;;;5078176;28;20093;-71
2022/07/22 01:55:37;;;;;;;4.30;2.92;;;16.60;99.90;;;;;;5077628;28;20044;-72
2022/07/22 01:58:04;;;;;;;5.30;2.25;;;16.60;99.90;;;;;;5076394;28;20073;-72
2022/07/22 02:00:33;;;;;;;4.25;2.30;;;16.50;99.90;;;;;;5077304;28;20356;-72
2022/07/22 02:02:59;;;;;;;4.53;2.15;;;16.60;99.90;;;;;;5083439;28;20058;-72
2022/07/22 02:05:24;;;;;;;7.30;2.65;;;16.60;99.90;;;;;;5077839;28;20072;-71
2022/07/22 02:07:50;;;;;;;3.00;2.33;;;16.60;99.90;;;;;;5077681;28;20491;-71
2022/07/22 02:10:17;;;;;;;3.50;2.40;;;16.60;99.90;;;;;;5076731;28;20048;-72
2022/07/22 02:12:42;;;;;;;8.75;2.58;;;16.60;99.90;;;;;;5076115;28;20084;-72
2022/07/22 02:15:09;;;;;;;9.43;2.33;;;16.60;99.90;;;;;;5075024;28;21009;-72
2022/07/22 02:17:35;;;;;;;5.88;2.40;;;16.60;99.90;;;;;;5074525;28;20052;-72
2022/07/22 02:20:02;;;;;;;5.93;2.35;;;16.60;99.90;;;;;;5077200;28;20040;-72
2022/07/22 02:22:28;;;;;;;5.47;2.05;;;16.60;99.90;;;;;;5076831;28;20070;-72
2022/07/22 02:24:53;;;;;;;7.80;2.92;;;16.50;99.90;;;;;;5075697;28;20044;-72
2022/07/22 02:27:19;;;;;;;2.83;1.80;;;16.50;99.90;;;;;;5064504;28;20051;-72
2022/07/22 02:29:45;;;;;;;5.60;2.28;;;16.50;99.90;;;;;;5076552;28;20036;-71
2022/07/22 02:32:11;;;;;;;4.63;2.30;;;16.50;99.90;;;;;;5076580;28;20781;-72
2022/07/22 02:34:36;;;;;;;7.95;2.22;;;16.50;99.90;;;;;;5107557;27;20055;-72
2022/07/22 02:37:02;;;;;;;4.95;2.00;;;16.40;99.90;;;;;;5074109;28;20086;-72
2022/07/22 02:39:28;;;;;;;5.60;2.25;;;16.50;99.90;;;;;;5074341;28;20127;-72
2022/07/22 02:41:54;;;;;;;7.22;2.13;;;16.50;99.90;;;;;;5074779;28;20085;-73
2022/07/22 02:44:20;;;;;;;5.03;2.05;;;16.50;99.90;;;;;;5074155;28;20048;-73
2022/07/22 02:46:46;;;;;;;3.28;1.77;;;16.50;99.90;;;;;;5075980;28;20055;-73
2022/07/22 02:49:12;;;;;;;4.45;2.15;;;16.50;99.90;;;;;;5078496;28;20764;-73
2022/07/22 02:51:37;;;;;;;4.75;1.55;;;16.40;99.90;;;;;;5076672;28;20121;-73
2022/07/22 02:54:03;;;;;;;5.90;1.88;;;16.40;99.90;;;;;;5077152;28;20152;-73
2022/07/22 02:56:29;;;;;;;5.85;1.83;;;16.40;99.90;;;;;;5079068;28;20296;-73
2022/07/22 02:58:55;;;;;;;6.00;2.05;;;16.50;99.90;;;;;;5074107;28;20036;-73
2022/07/22 03:01:21;;;;;;;3.45;1.70;;;16.40;99.90;;;;;;5075915;28;20040;-73
2022/07/22 03:03:46;;;;;;;3.10;1.65;;;16.40;99.90;;;;;;5076030;28;20051;-73
2022/07/22 03:06:12;;;;;;;2.38;2.00;;;16.40;99.90;;;;;;5076772;28;20040;-73
2022/07/22 03:08:39;;;;;;;10.50;3.30;;;16.40;99.90;;;;;;5074920;28;20147;-73
2022/07/22 03:11:05;;;;;;;5.47;2.08;;;16.40;99.90;;;;;;5072676;28;20036;-73
2022/07/22 03:13:31;;;;;;;1.55;1.38;;;16.40;99.90;;;;;;5063640;28;20059;-73
2022/07/22 03:15:57;;;;;;;5.10;2.15;;;16.40;99.90;;;;;;5074955;28;20123;-73
2022/07/22 03:18:22;;;;;;;3.22;1.83;;;16.40;99.90;;;;;;5076899;28;20508;-73
2022/07/22 03:20:48;;;;;;;3.60;2.60;;;16.40;99.90;;;;;;5082491;28;20063;-73
2022/07/22 03:23:14;;;;;;;3.63;1.40;;;16.40;99.90;;;;;;5076022;28;20323;-73
2022/07/22 03:25:40;;;;;;;3.13;1.63;;;16.40;99.90;;;;;;5075465;28;20044;-73
2022/07/22 03:28:06;;;;;;;2.15;1.48;;;16.40;99.90;;;;;;5075650;28;20055;-73
2022/07/22 03:30:32;;;;;;;2.10;1.58;;;16.40;99.90;;;;;;5076753;28;20058;-73
2022/07/22 03:32:57;;;;;;;3.33;1.65;;;16.40;99.90;;;;;;5076731;28;20052;-73
2022/07/22 03:35:23;;;;;;;4.45;1.83;;;16.40;99.90;;;;;;5058282;28;20052;-73
2022/07/22 03:37:49;;;;;;;4.53;2.17;;;16.30;99.90;;;;;;5074707;28;21467;-73
2022/07/22 03:40:15;;;;;;;3.88;2.00;;;16.40;99.90;;;;;;5092738;28;20230;-73
2022/07/22 03:42:41;;;;;;;5.75;2.20;;;16.40;99.90;;;;;;5075650;28;20875;-73
2022/07/22 03:45:09;;;;;;;3.38;1.52;;;16.30;99.90;;;;;;5076247;28;20048;-73
2022/07/22 03:47:35;;;;;;;5.82;2.42;;;16.30;99.90;;;;;;5075397;28;20044;-73
2022/07/22 03:50:01;;;;;;;3.38;1.83;;;16.30;99.90;;;;;;5077413;28;20059;-73
2022/07/22 03:52:30;;;;;;;3.88;1.88;;;16.30;99.90;;;;;;5074593;28;20959;-73
2022/07/22 03:54:56;;;;;;;6.25;2.03;;;16.30;99.90;;;;;;5075826;28;20492;-73
2022/07/22 03:57:21;;;;;;;4.47;1.65;;;16.30;99.90;;;;;;5075591;28;20044;-73
2022/07/22 03:59:47;;;;;;;2.38;1.25;;;16.30;99.90;;;;;;5075368;28;20080;-73
2022/07/22 04:02:13;;;;;;;3.95;2.00;;;16.30;99.90;;;;;;5074930;28;20052;-73
2022/07/22 04:04:39;;;;;;;3.10;2.00;;;16.30;99.90;;;;;;5078953;28;20044;-73
2022/07/22 04:07:04;;;;;;;6.60;1.52;;;16.30;99.90;;;;;;5087375;28;20055;-73
2022/07/22 04:09:30;;;;;;;4.28;1.70;;;16.20;99.90;;;;;;5080531;28;20047;-73
2022/07/22 04:11:56;;;;;;;5.63;1.77;;;16.30;99.90;;;;;;5078933;28;20048;-73
2022/07/22 04:14:22;;;;;;;4.45;1.88;;;16.30;99.90;;;;;;5079776;28;20088;-73
2022/07/22 04:16:48;;;;;;;4.93;1.38;;;16.30;99.90;;;;;;5076413;28;20157;-73
2022/07/22 04:19:13;;;;;;;4.82;1.73;;;16.30;99.90;;;;;;5079169;28;20044;-73
2022/07/22 04:21:39;;;;;;;3.47;1.40;;;16.30;99.90;;;;;;5078772;28;20090;-73
2022/07/22 04:24:06;;;;;;;6.57;1.48;;;16.30;99.90;;;;;;5079117;28;20107;-73
2022/07/22 04:26:32;;;;;;;6.15;2.08;;;16.40;99.90;;;;;;5077868;28;20045;-73
2022/07/22 04:28:57;;;;;;;2.78;1.63;;;16.40;99.90;;;;;;5076468;28;20062;-73
2022/07/22 04:31:23;;;;;;;2.78;1.58;;;16.40;99.90;;;;;;5078912;28;20044;-73
2022/07/22 04:33:49;;;;;;;7.50;1.40;;;16.40;99.90;;;;;;5078723;28;20161;-74
2022/07/22 04:36:14;;;;;;;3.80;1.70;;;16.40;99.90;;;;;;5077089;28;20831;-73
2022/07/22 04:38:40;;;;;;;4.30;1.48;;;16.40;99.90;;;;;;5078916;28;20082;-73
2022/07/22 04:41:06;;;;;;;3.10;2.13;;;16.50;99.90;;;;;;5078390;28;20040;-73
2022/07/22 04:43:32;;;;;;;4.70;1.73;;;16.50;99.90;;;;;;5079765;28;20151;-73
2022/07/22 04:45:58;;;;;;;3.00;1.83;;;16.50;99.90;;;;;;5078929;28;20055;-73
2022/07/22 04:48:24;;;;;;;1.70;1.38;;;16.50;99.90;;;;;;5079078;28;20040;-73
2022/07/22 04:50:49;;;;;;;1.60;1.30;;;16.50;99.90;;;;;;5078683;28;20495;-73
2022/07/22 04:53:15;;;;;;;3.00;1.60;;;16.50;99.90;;;;;;5078437;28;20043;-74
2022/07/22 04:55:41;;;;;;;1.92;1.55;;;16.60;99.90;;;;;;5077146;28;20070;-73
2022/07/22 04:58:07;;;;;;;4.30;1.65;;;16.60;99.90;;;;;;5078129;28;20087;-74
2022/07/22 05:00:32;;;;;;;4.60;1.60;;;16.60;99.90;;;;;;5066349;28;20063;-72
2022/07/22 05:02:59;;;;;;;5.28;1.40;;;16.60;99.90;;;;;;5070025;28;21505;-72
2022/07/22 05:05:24;;;;;;;1.55;1.40;;;16.50;99.90;;;;;;5076112;28;20044;-73
2022/07/22 05:07:50;;;;;;;6.32;1.92;;;16.60;99.90;;;;;;5074223;28;20047;-72
2022/07/22 05:10:16;;;;;;;6.13;1.80;;;16.60;99.90;;;;;;5076212;28;20109;-72
2022/07/22 05:12:43;;;;;;;2.25;1.65;;;16.60;99.90;;;;;;5073007;28;20533;-72
2022/07/22 05:15:09;;;;;;;5.03;1.70;;;16.70;99.90;;;;;;5074309;28;20044;-72
2022/07/22 05:17:35;;;;;;;2.47;1.73;;;16.70;99.90;;;;;;5072047;28;20052;-73
2022/07/22 05:20:04;;;;;;;5.43;2.40;;;16.70;99.90;;;;;;5075656;28;20066;-72
2022/07/22 05:22:30;;;;;;;3.30;1.80;;;16.80;99.90;;;;;;5072644;28;20125;-73
2022/07/22 05:24:56;;;;;;;4.97;2.17;;;16.40;99.90;;;;;;5070418;28;20071;-72
2022/07/22 05:27:22;;;;;;;2.75;1.48;;;16.80;99.90;;;;;;5069854;28;20044;-73
2022/07/22 05:29:48;;;;;;;3.85;1.80;;;16.80;99.90;;;;;;5070054;28;20044;-73
2022/07/22 05:32:14;;;;;;;2.67;1.42;;;16.80;99.90;;;;;;5072897;28;20047;-72
2022/07/22 05:34:39;;;;;;;3.00;1.75;;;16.80;99.90;;;;;;5073621;28;20048;-73
2022/07/22 05:37:05;;;;;;;3.28;1.77;;;16.80;99.90;;;;;;5072681;28;20120;-72
2022/07/22 05:39:31;;;;;;;4.85;1.85;;;16.90;99.90;;;;;;5073386;28;20353;-72
2022/07/22 05:41:57;;;;;;;3.05;1.70;;;16.90;99.90;;;;;;5072370;28;20066;-72
2022/07/22 05:44:22;;;;;;;4.53;1.50;;;16.90;99.90;;;;;;5071304;28;20075;-73
2022/07/22 05:46:48;;;;;;;2.08;1.73;;;17.00;99.90;;;;;;5072579;28;20044;-73
2022/07/22 05:49:13;;;;;;;3.88;1.60;;;17.10;99.90;;;;;;5053207;28;20484;-72
2022/07/22 05:51:39;;;;;;;2.38;1.63;;;17.10;99.90;;;;;;5072238;28;20044;-73
2022/07/22 05:54:05;;;;;;;2.33;1.45;;;17.10;99.90;;;;;;5071212;28;20135;-74
2022/07/22 05:56:30;;;;;;;3.53;1.52;;;17.20;99.90;;;;;;5072502;28;20058;-73
2022/07/22 05:58:56;;;;;;;2.63;1.55;;;17.30;99.90;;;;;;5071981;28;20048;-73
2022/07/22 06:01:22;;;;;;;4.57;1.83;;;17.30;99.90;;;;;;5072584;28;20036;-72
2022/07/22 06:03:48;;;;;;;2.95;1.30;;;17.30;99.90;;;;;;5073340;28;20047;-73
2022/07/22 06:06:14;;;;;;;2.88;1.90;;;17.40;99.90;;;;;;5073187;28;20055;-73
2022/07/22 06:08:40;;;;;;;2.80;1.45;;;17.40;99.90;;;;;;5076540;28;20040;-72
2022/07/22 06:11:05;;;;;;;4.38;1.70;;;17.50;99.90;;;;;;5073488;28;20628;-73
2022/07/22 06:13:32;;;;;;;7.20;2.05;;;17.50;99.90;;;;;;5076200;28;20078;-73
2022/07/22 06:15:59;;;;;;;3.53;1.80;;;17.60;99.90;;;;;;5068912;28;20056;-72
2022/07/22 06:18:24;;;;;;;2.10;1.63;;;17.60;99.90;;;;;;5076814;28;20040;-73
2022/07/22 06:20:50;;;;;;;3.13;1.23;;;17.60;99.90;;;;;;5073279;28;20066;-73
2022/07/22 06:23:16;;;;;;;6.40;1.63;;;17.60;99.90;;;;;;5075296;28;20168;-73
2022/07/22 06:25:42;;;;;;;2.92;1.30;;;17.60;99.90;;;;;;5074739;28;20125;-72
2022/07/22 06:28:08;;;;;;;3.05;1.30;;;17.60;99.90;;;;;;5055366;28;20165;-73
2022/07/22 06:30:34;;;;;;;5.28;2.28;;;17.70;99.90;;;;;;5077036;28;20777;-71
2022/07/22 06:33:00;;;;;;;6.60;1.95;;;17.60;99.90;;;;;;5076541;28;20048;-72
2022/07/22 06:35:25;;;;;;;1.70;1.45;;;17.70;99.90;;;;;;5075558;28;20051;-72
2022/07/22 06:37:52;;;;;;;1.95;1.67;;;17.80;99.90;;;;;;5076681;28;20388;-73
2022/07/22 06:40:18;;;;;;;2.55;1.42;;;17.80;99.90;;;;;;5085740;28;20052;-73
2022/07/22 06:42:44;;;;;;;1.92;1.60;;;17.80;99.90;;;;;;5074978;28;20066;-73
2022/07/22 06:45:10;;;;;;;4.05;2.78;;;17.90;99.90;;;;;;5072807;28;20135;-73
2022/07/22 06:47:36;;;;;;;2.88;1.60;;;17.80;99.90;;;;;;5075225;28;20047;-73
2022/07/22 06:50:07;;;;;;;1.25;1.13;;;17.90;99.90;;;;;;5073897;28;20052;-73
2022/07/22 06:52:33;;;;;;;1.58;1.48;;;18.00;99.90;;;;;;5074607;28;20055;-73
2022/07/22 06:54:59;;;;;;;2.88;2.35;;;18.00;99.90;;;;;;5075225;28;20055;-73
2022/07/22 06:57:24;;;;;;;2.90;1.35;;;18.00;99.90;;;;;;5074881;28;20102;-74
2022/07/22 06:59:50;;;;;;;3.88;1.58;;;18.10;99.90;;;;;;5073586;28;20098;-73
2022/07/22 07:02:16;;;;;;;2.67;1.73;;;18.10;99.90;;;;;;5075990;28;20609;-74
2022/07/22 07:04:42;;;;;;;3.75;1.55;;;18.20;99.90;;;;;;5073362;28;20044;-73
2022/07/22 07:07:09;;;;;;;2.97;1.65;;;18.20;99.90;;;;;;5072943;28;20047;-73
2022/07/22 07:09:35;;;;;;;3.47;1.67;;;18.30;99.90;;;;;;5073635;28;20044;-74
2022/07/22 07:12:00;;;;;;;1.88;1.65;;;18.40;99.90;;;;;;5075663;28;20078;-73
2022/07/22 07:14:26;;;;;;;5.07;1.77;;;18.30;99.90;;;;;;5075073;28;20048;-73
2022/07/22 07:16:52;;;;;;;1.73;1.20;;;18.40;99.90;;;;;;5074681;28;20139;-74
2022/07/22 07:19:19;;;;;;;1.50;1.40;;;18.50;99.90;;;;;;5070925;28;20051;-73
2022/07/22 07:21:45;;;;;;;9.50;2.20;;;18.50;99.90;;;;;;5070209;28;20507;-73
2022/07/22 07:24:11;;;;;;;4.45;1.63;;;18.60;99.90;;;;;;5070496;28;20051;-73
2022/07/22 07:26:37;;;;;;;2.83;1.92;;;18.70;99.90;;;;;;5070565;28;20040;-73
2022/07/22 07:29:03;;;;;;;4.10;1.63;;;18.70;99.90;;;;;;5072121;28;20983;-74
2022/07/22 07:31:29;;;;;;;5.20;2.55;;;18.80;99.90;;;;;;5075716;28;20127;-74
2022/07/22 07:33:55;;;;;;;5.75;1.63;;;18.70;99.90;;;;;;5074360;28;20051;-73
2022/07/22 07:36:22;;;;;;;4.07;1.65;;;18.70;99.90;;;;;;5075587;28;20923;-72
2022/07/22 07:38:48;;;;;;;6.43;2.08;;;18.80;99.90;;;;;;5079623;28;20044;-72
2022/07/22 07:41:14;;;;;;;1.77;1.13;;;18.90;99.90;;;;;;5078353;28;20039;-72
2022/07/22 07:43:40;;;;;;;6.43;1.92;;;19.00;99.90;;;;;;5079805;28;20059;-72
2022/07/22 07:46:06;;;;;;;3.78;2.45;;;19.10;99.90;;;;;;5081834;28;20128;-72
2022/07/22 07:48:31;;;;;;;3.97;1.88;;;19.00;99.90;;;;;;5078881;28;20048;-72
2022/07/22 07:50:57;;;;;;;2.13;1.30;;;19.10;99.90;;;;;;5095798;27;20820;-71
2022/07/22 07:53:23;;;;;;;2.88;1.65;;;19.10;99.90;;;;;;5078395;28;20054;-72
2022/07/22 07:55:49;;;;;;;2.53;1.30;;;19.10;99.90;;;;;;5080471;28;20127;-72
2022/07/22 07:58:14;;;;;;;2.25;1.23;;;19.10;99.90;;;;;;5078722;28;20055;-72
2022/07/22 08:00:42;;;;;;;2.88;1.58;;;19.20;99.90;;;;;;5079372;28;20040;-72
2022/07/22 08:03:08;;;;;;;6.25;1.80;;;19.20;99.90;;;;;;5078144;28;20373;-72
2022/07/22 08:05:34;;;;;;;2.65;1.42;;;19.20;99.90;;;;;;5079544;28;20050;-72
2022/07/22 08:08:00;;;;;;;2.65;1.40;;;19.20;99.90;;;;;;5078690;28;20048;-72
2022/07/22 08:10:26;;;;;;;3.45;1.33;;;19.20;99.90;;;;;;5079403;28;20745;-72
2022/07/22 08:12:55;;;;;;;1.23;1.13;;;19.20;99.90;;;;;;5079313;28;20511;-72
2022/07/22 08:15:21;;;;;;;2.28;1.25;;;19.30;99.90;;;;;;5077894;28;20122;-72
2022/07/22 08:17:46;;;;;;;3.53;1.40;;;19.40;99.90;;;;;;5080227;28;20066;-72
2022/07/22 08:20:12;;;;;;;2.60;1.00;;;19.50;99.90;;;;;;5078047;28;20044;-72
2022/07/22 08:22:38;;;;;;;2.33;1.40;;;19.40;99.90;;;;;;5078579;28;20819;-72
2022/07/22 08:25:04;;;;;;;3.33;2.08;;;19.40;99.90;;;;;;5076745;28;20139;-72
2022/07/22 08:27:30;;;;;;;3.70;1.38;;;19.50;99.90;;;;;;5079286;28;20044;-72
2022/07/22 08:29:55;;;;;;;3.33;1.48;;;19.50;99.90;;;;;;5075679;28;20099;-72
2022/07/22 08:32:21;;;;;;;3.70;1.50;;;19.60;99.90;;;;;;5076281;28;21145;-72
2022/07/22 08:34:47;;;;;;;3.33;1.90;;;19.50;99.90;;;;;;5078257;28;20048;-72
2022/07/22 08:37:13;;;;;;;1.98;1.25;;;19.50;99.90;;;;;;5078799;28;20833;-73
2022/07/22 08:39:39;;;;;;;3.92;1.92;;;19.50;99.90;;;;;;5079438;28;20488;-72
2022/07/22 08:42:05;;;;;;;2.25;1.50;;;19.40;99.90;;;;;;5071594;28;20404;-72
2022/07/22 08:44:31;;;;;;;1.85;1.30;;;19.40;99.90;;;;;;5078801;28;20052;-71
2022/07/22 08:46:59;;;;;;;3.38;1.33;;;19.50;99.90;;;;;;5076421;28;20056;-73
2022/07/22 08:49:25;;;;;;;2.60;1.38;;;19.50;99.90;;;;;;5075476;28;20476;-71
2022/07/22 08:51:51;;;;;;;1.77;1.30;;;19.50;99.90;;;;;;5073200;28;20116;-72
2022/07/22 08:54:16;;;;;;;3.40;1.52;;;19.30;99.90;;;;;;5074103;28;20052;-71
2022/07/22 08:56:47;;;;;;;9.45;1.80;;;19.20;99.90;;;;;;5074367;28;20043;-72
2022/07/22 08:59:13;;;;;;;2.78;1.70;;;19.20;99.90;;;;;;5074077;28;20053;-72
2022/07/22 09:02:04;;;;;;;3.55;1.20;;;19.10;99.90;;;;;;5077089;28;20044;-72
2022/07/22 09:04:31;;;;;;;4.13;1.37;;;19.20;99.90;;;;;;4711848;28;10000471;-71
2022/07/22 09:06:58;;;;;;;4.40;1.60;;;19.20;99.90;;;;;;5053235;28;20052;-73
2022/07/22 09:09:32;;;;;;;1.90;1.30;;;19.30;99.90;;;;;;5071125;28;20473;-76
2022/07/22 09:12:06;;;;;;;1.92;1.30;;;19.40;99.90;;;;;;5070365;28;20040;-73
2022/07/22 09:14:50;;;;;;;4.88;1.42;;;19.60;99.90;;;;;;5071514;28;20655;-74
2022/07/22 09:17:30;;;;;;;1.95;1.13;;;19.80;99.90;;;;;;5078470;28;20141;-74
2022/07/22 09:19:59;;;;;;;2.00;1.55;;;19.90;99.90;;;;;;5072653;28;20819;-75
2022/07/22 09:22:44;;;;;;;3.88;1.20;;;20.00;99.90;;;;;;5075281;28;20083;-74
2022/07/22 09:25:21;;;;;;;1.88;1.10;;;20.00;99.90;;;;;;5073582;28;20054;-74
2022/07/22 09:27:49;;;;;;;2.95;1.83;;;20.00;99.90;;;;;;5066813;28;20098;-73
2022/07/22 09:30:21;;;;;;;2.83;1.35;;;19.90;99.90;;;;;;5074328;28;20044;-73
2022/07/22 09:32:48;;;;;;;2.53;1.10;;;19.90;99.90;;;;;;5072402;28;20044;-74
2022/07/22 09:35:15;;;;;;;4.75;1.70;;;19.60;99.90;;;;;;5072826;28;20036;-73
2022/07/22 09:37:53;;;;;;;1.88;1.23;;;19.50;99.90;;;;;;5074227;28;21840;-74
2022/07/22 09:40:24;;;;;;;1.67;1.02;;;19.30;99.90;;;;;;5075359;28;20662;-75
2022/07/22 09:42:53;;;;;;;3.35;1.25;;;19.30;99.90;;;;;;5079012;28;20485;-75
2022/07/22 09:45:20;;;;;;;3.55;1.05;;;19.30;99.90;;;;;;5073890;28;20044;-74
2022/07/22 09:47:47;;;;;;;4.38;1.55;;;19.30;99.90;;;;;;5075300;28;20139;-75
2022/07/22 09:50:39;;;;;;;1.65;1.05;;;19.20;99.90;;;;;;5074374;28;20102;-74
2022/07/22 09:53:04;;;;;;;3.83;1.02;;;19.20;99.90;;;;;;5087722;27;20091;-75
2022/07/22 09:55:30;;;;;;;2.45;1.13;;;19.20;99.90;;;;;;5072468;28;20131;-74
2022/07/22 09:57:57;;;;;;;2.92;1.38;;;18.90;99.90;;;;;;5072551;28;20056;-76
2022/07/22 10:00:27;;;;;;;4.55;1.40;;;18.90;99.90;;;;;;5072699;28;20126;-74
2022/07/22 10:02:58;;;;;;;1.15;0.88;;;18.80;99.90;;;;;;5073407;28;20044;-76
2022/07/22 10:05:30;;;;;;;2.35;1.02;;;18.80;99.90;;;;;;5071752;28;20125;-74
2022/07/22 10:07:57;;;;;;;1.40;0.98;;;18.70;99.90;;;;;;5069918;28;20063;-76
2022/07/22 10:10:25;;;;;;;2.25;1.30;;;18.70;99.90;;;;;;5071037;28;20423;-74
2022/07/22 10:12:54;;;;;;;3.53;1.30;;;18.70;99.90;;;;;;5076080;28;20044;-76
2022/07/22 10:15:21;;;;;;;2.42;1.42;;;18.90;99.90;;;;;;5073460;28;20040;-75
2022/07/22 10:17:49;;;;;;;4.03;1.23;;;19.00;99.90;;;;;;5075187;28;20044;-75
2022/07/22 10:20:25;;;;;;;1.58;1.15;;;18.90;99.90;;;;;;5070903;28;20167;-75
2022/07/22 10:22:59;;;;;;;4.32;1.42;;;19.00;99.90;;;;;;5072815;28;20163;-75
2022/07/22 10:25:28;;;;;;;5.80;1.40;;;19.10;99.90;;;;;;5070380;28;20044;-74
2022/07/22 10:28:04;;;;;;;1.73;1.35;;;19.20;99.90;;;;;;5073973;28;20769;-76
2022/07/22 10:30:38;;;;;;;3.60;1.10;;;19.20;99.90;;;;;;5070224;28;20161;-75
2022/07/22 10:33:14;;;;;;;2.17;1.02;;;19.20;99.90;;;;;;5068517;28;20482;-74
2022/07/22 10:36:01;;;;;;;1.67;1.10;;;19.10;99.90;;;;;;5074612;28;20055;-74
2022/07/22 10:38:29;;;;;;;1.52;0.85;;;19.20;99.90;;;;;;5067882;28;20059;-73
2022/07/22 10:41:00;;;;;;;8.05;1.10;;;19.20;99.90;;;;;;5071518;28;20051;-73
2022/07/22 10:43:27;;;;;;;2.38;1.30;;;19.30;99.90;;;;;;5071701;28;20440;-73
2022/07/22 10:46:08;;;;;;;1.00;0.90;;;19.30;99.90;;;;;;5069292;28;20246;-72
2022/07/22 10:48:36;;;;;;;2.55;1.02;;;19.30;99.90;;;;;;5069603;28;20623;-73
2022/07/22 10:51:21;;;;;;;1.48;1.10;;;19.50;99.90;;;;;;5069901;28;20051;-73
2022/07/22 10:53:54;;;;;;;2.10;1.90;;;19.40;99.90;;;;;;5067144;28;20056;-74
2022/07/22 10:56:27;;;;;;;3.88;1.58;;;19.40;99.90;;;;;;5068928;28;20920;-73
2022/07/22 10:59:12;;;;;;;5.78;1.30;;;19.50;99.90;;;;;;5070854;28;20036;-73
2022/07/22 11:01:42;;;;;;;2.33;1.40;;;19.60;99.90;;;;;;5071554;28;20044;-73
2022/07/22 11:04:17;;;;;;;2.58;1.27;;;19.60;99.90;;;;;;5074641;28;20043;-73
2022/07/22 11:06:44;;;;;;;3.67;1.85;;;19.80;99.90;;;;;;5071837;28;20051;-73
2022/07/22 11:09:11;;;;;;;0.90;0.90;;;19.80;99.90;;;;;;5072304;28;20203;-73
2022/07/22 11:11:52;;;;;;;1.65;1.30;;;20.00;99.90;;;;;;5070105;28;20151;-72
2022/07/22 11:14:38;;;;;;;2.78;1.23;;;20.10;99.90;;;;;;5070445;28;20121;-72
2022/07/22 11:17:06;;;;;;;1.45;0.88;;;20.40;99.90;;;;;;5071861;28;20132;-73
2022/07/22 11:19:32;;;;;;;2.25;1.30;;;20.60;99.90;;;;;;5054098;28;20897;-73
2022/07/22 11:22:02;;;;;;;5.13;0.90;;;20.60;99.90;;;;;;5070127;28;20059;-73
2022/07/22 11:24:30;;;;;;;1.90;0.75;;;20.90;99.90;;;;;;5071892;28;20126;-73
2022/07/22 11:26:58;;;;;;;2.35;0.98;;;20.80;99.90;;;;;;5067961;28;20533;-73
2022/07/22 11:29:28;;;;;;;1.13;0.90;;;20.90;99.90;;;;;;5075758;28;20075;-73
2022/07/22 11:31:56;;;;;;;2.65;1.00;;;21.00;99.90;;;;;;5070729;28;20043;-73
2022/07/22 11:34:22;;;;;;;0.80;0.80;;;21.00;99.90;;;;;;5072606;28;20694;-73
2022/07/22 11:36:49;;;;;;;0.80;0.80;;;21.00;99.90;;;;;;5079747;28;20060;-72
2022/07/22 11:39:19;;;;;;;1.55;1.05;;;20.90;99.90;;;;;;5070327;28;20053;-72
2022/07/22 11:41:45;;;;;;;2.33;1.00;;;20.70;99.90;;;;;;5072468;28;20048;-73
2022/07/22 11:44:11;;;;;;;2.65;1.15;;;20.70;99.90;;;;;;5070816;28;20156;-72
2022/07/22 11:46:39;;;;;;;2.38;0.82;;;20.80;99.90;;;;;;5070173;28;20773;-73
2022/07/22 11:49:05;;;;;;;3.90;1.00;;;20.70;99.90;;;;;;5074971;28;20052;-72
2022/07/22 11:51:33;;;;;;;2.78;1.20;;;20.70;99.90;;;;;;5069722;28;20071;-72
2022/07/22 11:53:59;;;;;;;1.23;0.70;;;20.50;99.90;;;;;;5075805;28;20055;-72
2022/07/22 11:56:26;;;;;;;6.70;1.75;;;20.50;99.90;;;;;;5073597;28;20054;-72
2022/07/22 11:58:54;;;;;;;4.45;1.35;;;20.30;99.90;;;;;;5063992;28;20072;-73
2022/07/22 12:01:21;;;;;;;3.13;1.02;;;20.40;99.90;;;;;;5069248;28;20173;-74
2022/07/22 12:03:52;;;;;;;1.65;0.90;;;20.50;99.90;;;;;;5064169;28;20056;-73
2022/07/22 12:06:20;;;;;;;1.85;1.33;;;20.70;99.90;;;;;;5069284;28;20046;-73
2022/07/22 12:08:53;;;;;;;0.70;0.70;;;20.50;99.90;;;;;;5073681;28;20055;-73
2022/07/22 12:11:21;;;;;;;4.15;0.98;;;20.60;99.90;;;;;;5071269;28;20071;-72
2022/07/22 12:13:49;;;;;;;3.60;1.10;;;20.70;99.90;;;;;;5073235;28;20131;-73
2022/07/22 12:16:27;;;;;;;0.98;0.90;;;20.80;99.90;;;;;;5071994;28;20059;-73
2022/07/22 12:18:59;;;;;;;1.98;1.05;;;20.80;99.90;;;;;;5069446;28;20110;-73
2022/07/22 12:21:27;;;;;;;1.25;0.98;;;20.70;99.90;;;;;;5070342;28;20098;-73
2022/07/22 12:23:55;;;;;;;2.63;1.15;;;20.80;99.90;;;;;;5070061;28;20392;-72
2022/07/22 12:26:43;;;;;;;4.55;1.33;;;20.80;99.90;;;;;;5073337;28;20060;-73
2022/07/22 12:29:35;;;;;;;1.45;0.98;;;20.80;99.90;;;;;;5074789;28;20254;-73
2022/07/22 12:32:03;;;;;;;3.85;0.88;;;20.70;98.30;;;;;;5073652;28;20104;-73
2022/07/22 12:34:30;;;;;;;2.63;1.30;;;20.60;99.90;;;;;;5071267;28;20065;-72
2022/07/22 12:36:56;;;;;;;2.38;0.82;;;20.70;99.90;;;;;;5073015;28;20052;-72
2022/07/22 12:39:22;;;;;;;2.28;1.23;;;20.90;99.90;;;;;;5073584;28;20570;-72
2022/07/22 12:41:52;;;;;;;2.63;1.13;;;20.80;99.90;;;;;;5071292;28;20043;-72
2022/07/22 12:44:21;;;;;;;2.58;1.13;;;20.80;99.90;;;;;;5073620;28;20059;-73
2022/07/22 12:46:49;;;;;;;2.88;1.23;;;20.90;99.90;;;;;;5074267;28;20065;-72